Time;durP1;ratioP1;P1;durP2;ratioP2;P2;SDS_P1;SDS_P2;PMS_P1;PMS_P2;Temp;Humidity;BMP_temperature;BMP_pressure;BME280_temperature;BME280_humidity;BME280_pressure;Samples;Min_cycle;Max_cycle;Signal;HPM_P1;HPM_P2
2022/01/07 00:01:34;;;;;;;0.20;0.20;;;;;;;19.23;42.98;101234.38;5090196;28;20058;-33
2022/01/07 00:04:02;;;;;;;0.20;0.20;;;;;;;19.23;43.21;101229.69;5104370;28;20264;-34
2022/01/07 00:06:27;;;;;;;0.20;0.20;;;;;;;19.22;43.14;101230.81;5108863;27;20481;-35
2022/01/07 00:08:53;;;;;;;0.20;0.20;;;;;;;19.23;43.25;101224.16;5109850;28;20474;-36
2022/01/07 00:11:19;;;;;;;0.20;0.20;;;;;;;19.23;42.91;101220.59;5079521;28;20051;-34
2022/01/07 00:13:45;;;;;;;0.22;0.22;;;;;;;19.23;43.29;101224.16;5112999;28;20043;-33
2022/01/07 00:16:11;;;;;;;0.20;0.20;;;;;;;19.25;43.11;101226.66;5110806;28;20047;-35
2022/01/07 00:18:39;;;;;;;0.20;0.20;;;;;;;19.23;43.38;101215.88;5101072;28;20506;-34
2022/01/07 00:21:05;;;;;;;0.20;0.20;;;;;;;19.25;43.16;101219.19;5110326;28;20051;-36
2022/01/07 00:23:31;;;;;;;0.20;0.20;;;;;;;19.24;43.16;101217.53;5094760;28;20650;-34
2022/01/07 00:25:56;;;;;;;0.20;0.20;;;;;;;19.23;43.04;101204.84;5114298;28;20394;-35
2022/01/07 00:28:22;;;;;;;0.20;0.20;;;;;;;19.23;43.05;101198.50;5114392;28;20176;-34
2022/01/07 00:30:48;;;;;;;0.20;0.20;;;;;;;19.23;43.34;101190.22;5112849;28;20083;-35
2022/01/07 00:33:14;;;;;;;0.22;0.22;;;;;;;19.22;43.18;101192.16;5093877;28;20480;-35
2022/01/07 00:35:40;;;;;;;0.20;0.20;;;;;;;19.23;43.39;101188.28;5111998;28;20186;-34
2022/01/07 00:38:05;;;;;;;0.20;0.20;;;;;;;19.24;43.17;101189.94;5093677;28;20057;-33
2022/01/07 00:40:31;;;;;;;0.20;0.20;;;;;;;19.23;43.01;101180.00;5110505;28;20043;-34
2022/01/07 00:42:57;;;;;;;0.20;0.20;;;;;;;19.24;43.06;101176.13;5108517;28;20043;-34
2022/01/07 00:45:24;;;;;;;0.20;0.20;;;;;;;19.25;43.09;101176.94;5078014;28;20035;-34
2022/01/07 00:47:50;;;;;;;0.20;0.20;;;;;;;19.22;43.38;101178.34;5093164;28;20043;-34
2022/01/07 00:50:18;;;;;;;0.20;0.20;;;;;;;19.24;43.09;101175.28;5111591;28;20050;-36
2022/01/07 00:52:44;;;;;;;0.20;0.20;;;;;;;19.23;43.13;101163.41;5088942;28;20054;-33
2022/01/07 00:55:10;;;;;;;0.20;0.20;;;;;;;19.22;43.17;101161.78;5116116;28;20039;-34
2022/01/07 00:57:36;;;;;;;0.20;0.20;;;;;;;19.23;43.05;101165.38;5093171;28;20399;-34
2022/01/07 01:00:05;;;;;;;0.20;0.20;;;;;;;19.23;43.05;101157.91;5113654;28;20521;-35
2022/01/07 01:02:31;;;;;;;0.20;0.20;;;;;;;19.24;43.24;101158.72;5115565;28;20044;-34
2022/01/07 01:04:57;;;;;;;0.20;0.20;;;;;;;19.22;43.23;101147.97;5115080;28;20039;-34
2022/01/07 01:07:22;;;;;;;0.20;0.20;;;;;;;19.23;42.96;101146.84;5113315;28;20054;-36
2022/01/07 01:09:48;;;;;;;0.20;0.20;;;;;;;19.23;43.23;101129.47;5108772;28;20104;-36
2022/01/07 01:12:14;;;;;;;0.20;0.20;;;;;;;19.23;43.07;101148.78;5108864;28;20036;-34
2022/01/07 01:14:40;;;;;;;0.20;0.20;;;;;;;19.23;42.95;101146.84;5114065;28;20065;-36
2022/01/07 01:17:06;;;;;;;0.20;0.20;;;;;;;19.22;43.22;101150.72;5107685;28;20091;-36
2022/01/07 01:19:31;;;;;;;0.20;0.20;;;;;;;19.24;43.17;101151.28;5112021;28;20464;-33
2022/01/07 01:21:57;;;;;;;0.20;0.20;;;;;;;19.23;43.26;101123.94;5111209;28;20040;-34
2022/01/07 01:24:23;;;;;;;0.20;0.20;;;;;;;19.21;43.00;101129.75;5111268;28;20035;-34
2022/01/07 01:26:49;;;;;;;0.20;0.20;;;;;;;19.23;43.20;101112.91;5090695;28;20048;-34
2022/01/07 01:29:15;;;;;;;0.20;0.20;;;;;;;19.23;43.13;101116.47;5114381;28;20051;-34
2022/01/07 01:31:40;;;;;;;0.20;0.20;;;;;;;19.22;43.17;101114.84;5111832;28;20078;-33
2022/01/07 01:34:06;;;;;;;0.20;0.20;;;;;;;19.23;43.22;101107.38;5108406;28;20043;-35
2022/01/07 01:36:32;;;;;;;0.20;0.20;;;;;;;19.22;43.00;101103.78;5113487;28;20055;-34
2022/01/07 01:38:59;;;;;;;0.20;0.20;;;;;;;19.22;43.01;101103.78;5108977;28;20470;-34
2022/01/07 01:41:26;;;;;;;0.20;0.20;;;;;;;19.23;43.27;101099.09;5114328;28;20039;-36
2022/01/07 01:43:51;;;;;;;0.20;0.20;;;;;;;19.22;43.00;101108.50;5088409;28;20043;-34
2022/01/07 01:46:18;;;;;;;0.20;0.20;;;;;;;19.22;43.22;101100.22;5106730;28;20084;-34
2022/01/07 01:48:45;;;;;;;0.20;0.20;;;;;;;19.23;43.04;101096.34;5109860;28;20043;-33
2022/01/07 01:51:12;;;;;;;0.20;0.20;;;;;;;19.22;43.24;101103.78;5095298;28;20049;-33
2022/01/07 01:53:40;;;;;;;0.20;0.20;;;;;;;19.23;43.31;101107.38;5088475;28;20088;-34
2022/01/07 01:56:06;;;;;;;0.20;0.20;;;;;;;19.23;42.97;101094.41;5094321;28;20040;-33
2022/01/07 01:58:31;;;;;;;0.20;0.20;;;;;;;19.24;42.96;101093.28;5096821;28;20054;-34
2022/01/07 02:00:57;;;;;;;0.20;0.20;;;;;;;19.22;43.10;101091.94;5089799;28;20524;-33
2022/01/07 02:03:23;;;;;;;0.20;0.20;;;;;;;19.22;42.96;101086.41;5091609;28;20044;-34
2022/01/07 02:05:49;;;;;;;0.20;0.20;;;;;;;19.22;43.11;101083.63;5092594;28;20070;-34
2022/01/07 02:08:15;;;;;;;0.20;0.20;;;;;;;19.22;43.26;101083.63;5095121;28;20047;-34
2022/01/07 02:10:41;;;;;;;0.20;0.20;;;;;;;19.23;43.09;101088.06;5115890;28;20112;-35
2022/01/07 02:13:06;;;;;;;0.20;0.20;;;;;;;19.22;43.04;101078.94;5107330;28;20048;-33
2022/01/07 02:15:32;;;;;;;0.20;0.20;;;;;;;19.22;43.24;101067.91;5110544;28;20501;-36
2022/01/07 02:17:58;;;;;;;0.20;0.20;;;;;;;19.23;43.17;101071.47;5108990;28;20094;-34
2022/01/07 02:20:26;;;;;;;0.20;0.20;;;;;;;19.22;42.97;101062.38;5114302;28;20050;-36
2022/01/07 02:22:53;;;;;;;0.20;0.20;;;;;;;19.22;43.04;101065.13;5108354;28;20075;-34
2022/01/07 02:25:20;;;;;;;0.20;0.20;;;;;;;19.23;43.20;101060.44;5097666;28;20077;-34
2022/01/07 02:27:47;;;;;;;0.20;0.20;;;;;;;19.21;43.21;101055.22;5093588;28;20039;-34
2022/01/07 02:30:15;;;;;;;0.20;0.20;;;;;;;19.21;43.24;101055.22;5094365;28;20043;-36
2022/01/07 02:32:41;;;;;;;0.20;0.20;;;;;;;19.22;43.02;101054.09;5090746;28;20044;-37
2022/01/07 02:35:08;;;;;;;0.20;0.20;;;;;;;19.21;43.20;101052.44;5106733;28;20482;-34
2022/01/07 02:37:35;;;;;;;0.20;0.20;;;;;;;19.22;42.90;101051.34;5091241;28;20058;-35
2022/01/07 02:40:02;;;;;;;0.20;0.20;;;;;;;19.22;43.17;101036.69;5111586;28;20095;-35
2022/01/07 02:42:28;;;;;;;0.20;0.20;;;;;;;19.23;43.04;101043.88;5109784;28;20042;-34
2022/01/07 02:44:54;;;;;;;0.20;0.20;;;;;;;19.23;43.22;101043.88;5109215;28;20036;-36
2022/01/07 02:47:21;;;;;;;0.20;0.20;;;;;;;19.22;43.07;101033.94;5102712;28;20096;-34
2022/01/07 02:49:48;;;;;;;0.20;0.20;;;;;;;19.22;42.93;101033.94;5107223;28;20039;-36
2022/01/07 02:52:14;;;;;;;0.20;0.20;;;;;;;19.22;42.99;101020.97;5112265;28;20067;-34
2022/01/07 02:54:40;;;;;;;0.28;0.28;;;;;;;19.22;43.22;101009.09;5104402;28;20464;-36
2022/01/07 02:57:05;;;;;;;0.20;0.20;;;;;;;19.22;43.05;100998.06;5107026;28;20040;-34
2022/01/07 02:59:31;;;;;;;0.20;0.20;;;;;;;19.22;43.22;100987.84;5112392;28;20493;-37
2022/01/07 03:01:57;;;;;;;0.20;0.20;;;;;;;19.23;43.09;100985.91;5107928;28;20047;-34
2022/01/07 03:04:24;;;;;;;0.20;0.20;;;;;;;19.22;43.07;100984.25;5107181;28;20039;-34
2022/01/07 03:06:50;;;;;;;0.20;0.20;;;;;;;19.22;42.93;100985.06;5109815;28;20043;-35
2022/01/07 03:09:15;;;;;;;0.20;0.20;;;;;;;19.21;43.19;100972.38;5088395;28;20036;-34
2022/01/07 03:11:41;;;;;;;0.20;0.20;;;;;;;19.22;43.06;100970.44;5109093;28;20043;-34
2022/01/07 03:14:07;;;;;;;0.20;0.20;;;;;;;19.22;43.00;100954.69;5090183;28;20054;-35
2022/01/07 03:16:33;;;;;;;0.20;0.20;;;;;;;19.21;43.03;100966.00;5109833;28;20122;-35
2022/01/07 03:19:00;;;;;;;0.20;0.20;;;;;;;19.21;42.95;100957.72;5115775;28;20044;-33
2022/01/07 03:21:26;;;;;;;0.20;0.20;;;;;;;19.21;43.04;100953.06;5091881;28;20127;-35
2022/01/07 03:23:51;;;;;;;0.20;0.20;;;;;;;19.21;43.09;100946.69;5111103;28;20047;-34
2022/01/07 03:26:17;;;;;;;0.20;0.20;;;;;;;19.21;43.16;100932.88;5110016;28;20058;-34
2022/01/07 03:28:45;;;;;;;0.20;0.20;;;;;;;19.22;42.92;100935.38;5106702;28;20039;-35
2022/01/07 03:31:10;;;;;;;0.20;0.20;;;;;;;19.21;42.94;100928.22;5105902;28;20052;-35
2022/01/07 03:33:36;;;;;;;0.20;0.20;;;;;;;19.21;43.18;100919.94;5082286;28;20120;-37
2022/01/07 03:36:02;;;;;;;0.20;0.20;;;;;;;19.21;42.99;100924.59;5109826;28;20096;-34
2022/01/07 03:38:28;;;;;;;0.20;0.20;;;;;;;19.21;42.91;100924.59;5107993;28;20047;-36
2022/01/07 03:40:54;;;;;;;0.20;0.20;;;;;;;19.21;43.10;100924.59;5070658;28;20108;-33
2022/01/07 03:43:20;;;;;;;0.20;0.20;;;;;;;19.20;42.93;100909.97;5089097;28;20051;-34
2022/01/07 03:45:46;;;;;;;0.20;0.20;;;;;;;19.20;42.96;100917.44;5094676;28;21230;-34
2022/01/07 03:48:11;;;;;;;0.20;0.20;;;;;;;19.22;42.87;100917.97;5114802;28;20047;-36
2022/01/07 03:50:37;;;;;;;0.20;0.20;;;;;;;19.21;43.12;100911.66;5111346;28;20051;-35
2022/01/07 03:53:04;;;;;;;0.20;0.20;;;;;;;19.21;43.14;100906.13;5087941;28;21152;-35
2022/01/07 03:55:30;;;;;;;0.20;0.20;;;;;;;19.21;42.92;100908.03;5114566;28;20050;-34
2022/01/07 03:57:56;;;;;;;0.20;0.20;;;;;;;19.20;42.96;100898.09;5107562;28;20054;-35
2022/01/07 04:00:26;;;;;;;0.20;0.20;;;;;;;19.21;43.07;100894.22;5112299;28;20116;-35
2022/01/07 04:02:53;;;;;;;0.20;0.20;;;;;;;19.21;43.04;100891.47;5092360;28;20091;-34
2022/01/07 04:05:22;;;;;;;0.20;0.20;;;;;;;19.19;42.95;100890.94;5099416;28;20094;-34
2022/01/07 04:07:48;;;;;;;0.20;0.20;;;;;;;19.20;42.90;100885.13;5116556;28;20458;-34
2022/01/07 04:10:14;;;;;;;0.20;0.20;;;;;;;19.20;43.03;100882.34;5082622;28;20063;-33
2022/01/07 04:12:39;;;;;;;0.20;0.20;;;;;;;19.21;42.83;100877.66;5116315;28;20039;-34
2022/01/07 04:15:08;;;;;;;0.20;0.20;;;;;;;19.20;42.89;100871.31;5109409;28;20036;-34
2022/01/07 04:17:38;;;;;;;0.20;0.20;;;;;;;19.20;42.96;100876.00;5095257;28;20113;-33
2022/01/07 04:20:06;;;;;;;0.20;0.20;;;;;;;19.19;42.86;100868.84;5116086;28;20043;-33
2022/01/07 04:22:33;;;;;;;0.20;0.20;;;;;;;19.20;42.80;100871.31;5110829;28;20046;-34
2022/01/07 04:25:00;;;;;;;0.20;0.20;;;;;;;19.20;43.16;100870.50;5089569;28;20047;-34
2022/01/07 04:27:26;;;;;;;0.20;0.20;;;;;;;19.20;43.14;100865.78;5107983;28;20035;-34
2022/01/07 04:29:51;;;;;;;0.20;0.20;;;;;;;19.19;43.10;100855.88;5111827;28;20044;-33
2022/01/07 04:32:18;;;;;;;0.20;0.20;;;;;;;19.20;42.99;100864.97;5109904;28;20051;-38
2022/01/07 04:34:44;;;;;;;0.20;0.20;;;;;;;19.20;43.00;100865.78;5110481;28;20047;-34
2022/01/07 04:37:10;;;;;;;0.20;0.20;;;;;;;19.19;43.05;100860.56;5109952;28;20078;-34
2022/01/07 04:39:36;;;;;;;0.20;0.20;;;;;;;19.19;43.10;100868.84;5113298;28;20051;-34
2022/01/07 04:42:02;;;;;;;0.20;0.20;;;;;;;19.19;42.93;100864.16;5109833;28;20055;-34
2022/01/07 04:44:28;;;;;;;0.20;0.20;;;;;;;19.19;43.01;100860.56;5109649;28;20104;-34
2022/01/07 04:46:54;;;;;;;0.20;0.20;;;;;;;19.19;42.91;100864.16;5093257;28;20043;-34
2022/01/07 04:49:19;;;;;;;0.20;0.20;;;;;;;19.19;42.84;100861.38;5097946;28;20097;-35
2022/01/07 04:51:45;;;;;;;0.20;0.20;;;;;;;19.18;42.94;100864.44;5111546;28;20525;-34
2022/01/07 04:54:12;;;;;;;0.20;0.20;;;;;;;19.18;42.87;100859.75;5108619;28;20576;-34
2022/01/07 04:56:38;;;;;;;0.20;0.20;;;;;;;19.18;43.13;100859.75;5110319;28;20043;-36
2022/01/07 04:59:03;;;;;;;0.30;0.30;;;;;;;19.19;43.11;100857.81;5111968;28;20051;-34
2022/01/07 05:01:29;;;;;;;0.20;0.20;;;;;;;19.19;43.08;100846.75;5105147;28;20104;-33
2022/01/07 05:03:55;;;;;;;0.20;0.20;;;;;;;19.18;42.78;100858.91;5110864;28;20055;-35
2022/01/07 05:06:56;;;;;;;0.20;0.20;;;;;;;19.20;42.86;100852.00;5112330;28;20405;-34
2022/01/07 05:09:13;;;;;;;0.20;0.20;;;;;;;19.19;43.08;100855.88;5088997;28;20039;-33
2022/01/07 05:11:39;;;;;;;0.20;0.20;;;;;;;19.19;42.90;100849.53;5089771;28;20062;-34
2022/01/07 05:14:05;;;;;;;0.20;0.20;;;;;;;19.19;42.81;100855.03;5105371;28;20042;-33
2022/01/07 05:16:30;;;;;;;0.20;0.20;;;;;;;19.18;42.77;100854.22;5094623;28;20126;-34
2022/01/07 05:18:57;;;;;;;0.20;0.20;;;;;;;19.19;43.10;100852.28;5114289;28;20043;-34
2022/01/07 05:21:23;;;;;;;0.20;0.20;;;;;;;19.19;43.03;100855.03;5109460;28;20054;-33
2022/01/07 05:23:49;;;;;;;0.20;0.20;;;;;;;19.18;42.91;100856.16;5093539;28;20058;-34
2022/01/07 05:26:15;;;;;;;0.20;0.20;;;;;;;19.18;43.09;100853.41;5109727;28;20043;-34
2022/01/07 05:28:40;;;;;;;0.20;0.20;;;;;;;19.18;42.95;100862.50;5113088;28;20047;-35
2022/01/07 05:31:06;;;;;;;0.20;0.20;;;;;;;19.18;42.73;100851.47;5109800;28;20126;-35
2022/01/07 05:33:32;;;;;;;0.20;0.20;;;;;;;19.19;42.79;100855.03;5092884;28;20047;-34
2022/01/07 05:35:57;;;;;;;0.20;0.20;;;;;;;19.18;42.77;100853.41;5112658;28;20044;-34
2022/01/07 05:38:23;;;;;;;0.20;0.20;;;;;;;19.17;42.87;100852.56;5113005;28;20047;-35
2022/01/07 05:40:49;;;;;;;0.20;0.20;;;;;;;19.17;42.78;100840.69;5090285;28;20051;-34
2022/01/07 05:43:15;;;;;;;0.20;0.20;;;;;;;19.18;43.00;100845.13;5108025;28;20524;-36
2022/01/07 05:45:44;;;;;;;0.20;0.20;;;;;;;19.18;42.69;100842.34;5104640;28;20051;-34
2022/01/07 05:48:10;;;;;;;0.20;0.20;;;;;;;19.19;43.08;100838.47;5108569;28;20386;-34
2022/01/07 05:50:36;;;;;;;0.20;0.20;;;;;;;19.16;42.98;100837.09;5104889;28;20044;-35
2022/01/07 05:53:02;;;;;;;0.20;0.20;;;;;;;19.18;42.76;100828.56;5107009;28;20144;-35
2022/01/07 05:55:27;;;;;;;0.20;0.20;;;;;;;19.17;43.09;100832.41;5111527;28;20047;-33
2022/01/07 05:57:53;;;;;;;0.20;0.20;;;;;;;19.17;43.08;100833.25;5107655;28;20107;-34
2022/01/07 06:00:18;;;;;;;0.20;0.20;;;;;;;19.18;42.90;100834.06;5092666;28;20059;-34
2022/01/07 06:02:44;;;;;;;0.20;0.20;;;;;;;19.17;42.74;100826.88;5117274;28;20050;-36
2022/01/07 06:05:11;;;;;;;0.20;0.20;;;;;;;19.17;42.78;100824.13;5109607;27;20047;-33
2022/01/07 06:07:37;;;;;;;0.20;0.20;;;;;;;19.17;42.71;100819.44;5116120;28;20043;-34
2022/01/07 06:10:04;;;;;;;0.20;0.20;;;;;;;19.17;42.79;100824.13;5109408;28;20077;-34
2022/01/07 06:12:30;;;;;;;0.20;0.20;;;;;;;19.17;42.94;100816.69;5111189;28;20146;-34
2022/01/07 06:14:55;;;;;;;0.20;0.20;;;;;;;19.17;43.00;100813.94;5107749;28;20043;-34
2022/01/07 06:17:21;;;;;;;0.20;0.20;;;;;;;19.17;42.69;100815.84;5110936;27;20069;-35
2022/01/07 06:19:47;;;;;;;0.20;0.20;;;;;;;19.16;42.66;100808.66;5113237;28;20062;-34
2022/01/07 06:22:13;;;;;;;0.20;0.20;;;;;;;19.17;42.71;100808.41;5109409;28;20078;-34
2022/01/07 06:24:39;;;;;;;0.20;0.20;;;;;;;19.17;42.74;100813.06;5108883;28;20047;-34
2022/01/07 06:27:05;;;;;;;0.20;0.20;;;;;;;19.16;42.80;100798.44;5108861;28;20051;-34
2022/01/07 06:29:30;;;;;;;0.20;0.20;;;;;;;19.17;42.87;100802.88;5106407;28;20410;-36
2022/01/07 06:31:56;;;;;;;0.20;0.20;;;;;;;19.16;42.92;100803.97;5108281;28;20261;-33
2022/01/07 06:34:23;;;;;;;0.20;0.20;;;;;;;19.16;42.84;100800.38;5109372;28;20035;-34
2022/01/07 06:36:49;;;;;;;0.20;0.20;;;;;;;19.16;42.66;100803.97;5106675;28;20071;-34
2022/01/07 06:39:15;;;;;;;0.20;0.20;;;;;;;19.16;42.72;100805.91;5092629;28;20097;-34
2022/01/07 06:41:41;;;;;;;0.20;0.20;;;;;;;19.16;42.79;100803.97;5090455;28;20048;-34
2022/01/07 06:44:07;;;;;;;0.20;0.20;;;;;;;19.15;42.64;100804.25;5111640;28;20426;-34
2022/01/07 06:46:32;;;;;;;0.20;0.20;;;;;;;19.15;42.92;100801.50;5110179;28;20047;-34
2022/01/07 06:48:58;;;;;;;0.20;0.20;;;;;;;19.15;42.94;100799.56;5112895;28;20051;-35
2022/01/07 06:51:24;;;;;;;0.20;0.20;;;;;;;19.15;42.81;100802.31;5101863;28;20044;-37
2022/01/07 06:53:49;;;;;;;0.20;0.20;;;;;;;19.16;42.69;100792.09;5105846;28;20071;-35
2022/01/07 06:56:15;;;;;;;0.20;0.20;;;;;;;19.15;42.89;100802.31;5110034;28;20051;-35
2022/01/07 06:58:42;;;;;;;0.20;0.20;;;;;;;19.15;42.81;100799.56;5105191;28;20040;-34
2022/01/07 07:01:07;;;;;;;0.20;0.20;;;;;;;19.14;42.60;100808.97;5108226;28;20048;-34
2022/01/07 07:03:35;;;;;;;0.20;0.20;;;;;;;19.15;42.62;100802.31;5104359;28;20113;-35
2022/01/07 07:06:01;;;;;;;0.20;0.20;;;;;;;19.14;42.94;100806.19;5088200;28;20039;-34
2022/01/07 07:08:28;;;;;;;0.20;0.20;;;;;;;19.15;42.81;100810.59;5105294;28;20122;-35
2022/01/07 07:10:54;;;;;;;0.20;0.20;;;;;;;19.15;42.85;100805.09;5094838;28;20051;-36
2022/01/07 07:13:20;;;;;;;0.20;0.20;;;;;;;19.16;42.81;100806.72;5104532;28;20080;-34
2022/01/07 07:15:45;;;;;;;0.20;0.20;;;;;;;19.16;42.88;100809.50;5106947;28;20043;-33
2022/01/07 07:18:11;;;;;;;0.20;0.20;;;;;;;19.15;42.92;100810.59;5117359;28;20043;-34
2022/01/07 07:20:37;;;;;;;0.20;0.20;;;;;;;19.14;42.88;100810.91;5113197;28;20062;-35
2022/01/07 07:23:02;;;;;;;0.20;0.20;;;;;;;19.14;42.80;100806.19;5111858;28;20104;-34
2022/01/07 07:25:28;;;;;;;0.20;0.20;;;;;;;19.16;42.72;100800.38;5113277;28;20035;-34
2022/01/07 07:27:54;;;;;;;0.20;0.20;;;;;;;19.15;42.70;100807.03;5115154;28;20043;-34
2022/01/07 07:30:19;;;;;;;0.20;0.20;;;;;;;19.15;42.87;100798.75;5108756;28;20055;-34
2022/01/07 07:32:47;;;;;;;0.20;0.20;;;;;;;19.14;42.65;100806.19;5110177;28;20048;-35
2022/01/07 07:36:27;;;;;;;0.20;0.20;;;;;;;19.14;42.67;100806.19;5108091;28;20084;-34
2022/01/07 07:37:58;;;;;;;0.20;0.20;;;;;;;19.14;42.88;100805.38;5100900;28;20084;-34
2022/01/07 07:40:24;;;;;;;0.20;0.20;;;;;;;19.15;42.94;100801.50;5111027;28;20131;-35
2022/01/07 07:42:50;;;;;;;0.20;0.20;;;;;;;19.14;42.76;100800.69;5114024;28;20036;-36
2022/01/07 07:45:15;;;;;;;0.20;0.20;;;;;;;19.13;42.91;100792.66;5115663;28;20096;-34
2022/01/07 07:47:42;;;;;;;0.20;0.20;;;;;;;19.14;42.62;100805.38;5098207;28;20092;-34
2022/01/07 07:50:12;;;;;;;0.20;0.20;;;;;;;19.14;42.83;100797.91;5115095;28;20082;-36
2022/01/07 07:52:38;;;;;;;0.20;0.20;;;;;;;19.14;42.91;100803.44;5107632;28;20047;-35
2022/01/07 07:55:04;;;;;;;0.20;0.20;;;;;;;19.14;42.77;100799.84;5111192;28;20047;-35
2022/01/07 07:57:30;;;;;;;0.20;0.20;;;;;;;19.14;42.65;100802.63;5110156;28;20039;-37
2022/01/07 07:59:55;;;;;;;0.20;0.20;;;;;;;19.13;42.82;100807.31;5111781;28;20092;-34
2022/01/07 08:02:22;;;;;;;0.20;0.20;;;;;;;19.13;42.40;100821.13;5108828;28;20044;-34
2022/01/07 08:04:48;;;;;;;0.20;0.20;;;;;;;19.14;42.86;100824.69;5113120;28;20039;-34
2022/01/07 08:07:16;;;;;;;0.20;0.20;;;;;;;19.13;42.72;100818.38;5112508;28;20051;-35
2022/01/07 08:09:42;;;;;;;0.20;0.20;;;;;;;19.14;42.85;100813.66;5112389;28;20042;-36
2022/01/07 08:12:21;;;;;;;0.20;0.20;;;;;;;19.14;42.70;100821.94;5114918;28;20086;-35
2022/01/07 08:17:32;;;;;;;0.20;0.20;;;;;;;19.13;42.71;100807.31;5089881;28;20429;-38
2022/01/07 08:19:58;;;;;;;0.20;0.20;;;;;;;19.14;42.74;100808.97;5113761;28;20051;-34
2022/01/07 08:22:23;;;;;;;0.20;0.20;;;;;;;19.13;42.88;100798.19;5114365;28;20040;-34
2022/01/07 08:24:50;;;;;;;0.20;0.20;;;;;;;19.13;42.55;100809.22;5110001;28;20043;-38
2022/01/07 08:27:16;;;;;;;0.20;0.20;;;;;;;19.13;42.73;100818.38;5093736;28;20085;-36
2022/01/07 08:30:03;;;;;;;0.20;0.20;;;;;;;19.14;42.58;100819.19;5112999;28;20076;-34
2022/01/07 08:35:14;;;;;;;0.20;0.20;;;;;;;19.13;42.74;100803.72;5094710;28;20044;-34
2022/01/07 08:37:40;;;;;;;0.20;0.20;;;;;;;19.11;42.84;100801.25;5111048;28;20082;-35
2022/01/07 08:40:06;;;;;;;0.20;0.20;;;;;;;19.12;42.81;100799.31;5117011;28;20385;-35
2022/01/07 08:42:33;;;;;;;0.20;0.20;;;;;;;19.12;42.63;100802.88;5094099;28;20198;-34
2022/01/07 08:44:58;;;;;;;0.20;0.20;;;;;;;19.12;42.72;100799.31;5111941;28;20040;-38
2022/01/07 08:47:26;;;;;;;0.20;0.20;;;;;;;19.12;42.56;100793.78;5113175;28;20124;-35
2022/01/07 08:49:52;;;;;;;0.20;0.20;;;;;;;19.12;42.52;100786.31;5111393;28;20039;-34
2022/01/07 08:52:19;;;;;;;0.20;0.20;;;;;;;19.12;42.73;100780.81;5111021;28;20618;-34
2022/01/07 08:54:45;;;;;;;0.20;0.20;;;;;;;19.12;42.62;100771.69;5090194;28;20043;-34
2022/01/07 08:57:11;;;;;;;0.20;0.20;;;;;;;19.11;42.63;100776.41;5111755;28;20088;-36
2022/01/07 08:59:36;;;;;;;0.20;0.20;;;;;;;19.12;42.79;100772.53;5115134;28;20048;-34
2022/01/07 09:02:03;;;;;;;0.20;0.20;;;;;;;19.13;42.54;100762.31;5113866;28;20120;-34
2022/01/07 09:04:29;;;;;;;0.20;0.20;;;;;;;19.12;42.61;100757.91;5089540;28;21211;-36
2022/01/07 09:06:54;;;;;;;0.20;0.20;;;;;;;19.11;42.65;100759.84;5109805;28;20044;-35
2022/01/07 09:09:20;;;;;;;0.20;0.20;;;;;;;19.11;42.64;100770.06;5109904;28;20063;-35
2022/01/07 09:11:46;;;;;;;0.20;0.20;;;;;;;19.12;42.56;100786.31;5111025;28;20103;-34
2022/01/07 09:14:12;;;;;;;0.20;0.20;;;;;;;19.12;42.57;100779.97;5108558;28;20390;-34
2022/01/07 09:16:37;;;;;;;0.20;0.20;;;;;;;19.12;42.64;100780.81;5117356;28;20039;-35
2022/01/07 09:19:03;;;;;;;0.20;0.20;;;;;;;19.11;42.46;100786.63;5107931;28;20085;-35
2022/01/07 09:21:29;;;;;;;0.20;0.20;;;;;;;19.12;42.62;100797.38;5117321;28;20055;-37
2022/01/07 09:23:54;;;;;;;0.20;0.20;;;;;;;19.11;42.78;100795.72;5116892;28;20054;-35
2022/01/07 09:26:21;;;;;;;0.20;0.20;;;;;;;19.12;42.69;100793.78;5104202;28;20040;-35
2022/01/07 09:28:46;;;;;;;0.20;0.20;;;;;;;19.11;42.53;100790.19;5114176;28;20036;-36
2022/01/07 09:31:14;;;;;;;0.20;0.20;;;;;;;19.12;42.65;100788.25;5108011;28;20047;-34
2022/01/07 09:33:40;;;;;;;0.20;0.20;;;;;;;19.11;42.66;100784.69;5110306;28;20126;-34
2022/01/07 09:36:25;;;;;;;0.20;0.20;;;;;;;19.11;42.49;100786.63;5079568;28;20082;-34
2022/01/07 09:38:51;;;;;;;0.20;0.20;;;;;;;19.11;42.69;100792.97;5108465;28;20482;-36
2022/01/07 09:41:17;;;;;;;0.20;0.20;;;;;;;19.12;42.47;100793.78;5110108;28;20054;-35
2022/01/07 09:43:43;;;;;;;0.20;0.20;;;;;;;19.11;42.65;100790.19;5110906;28;20054;-34
2022/01/07 09:46:12;;;;;;;0.20;0.20;;;;;;;19.12;42.79;100780.81;5107121;28;20135;-34
2022/01/07 09:48:38;;;;;;;0.20;0.20;;;;;;;19.11;42.59;100781.91;5111827;28;20043;-34
2022/01/07 09:51:03;;;;;;;0.20;0.20;;;;;;;19.10;42.70;100785.78;5107595;28;20500;-34
2022/01/07 09:53:29;;;;;;;0.20;0.20;;;;;;;19.11;42.46;100790.19;5107401;28;20042;-34
2022/01/07 09:55:55;;;;;;;0.20;0.20;;;;;;;19.11;42.61;100794.91;5107503;28;20062;-34
2022/01/07 09:58:20;;;;;;;0.20;0.20;;;;;;;19.11;42.78;100786.63;5115208;28;20446;-34
2022/01/07 10:00:46;;;;;;;0.20;0.20;;;;;;;19.11;42.88;100790.19;5112366;28;20047;-34
2022/01/07 10:03:14;;;;;;;0.20;0.20;;;;;;;19.12;42.54;100782.75;5092527;28;20425;-34
2022/01/07 10:05:44;;;;;;;0.20;0.20;;;;;;;19.10;42.58;100787.72;5113111;28;20048;-38
2022/01/07 10:08:27;;;;;;;0.20;0.20;;;;;;;19.00;42.95;100786.69;5116887;28;20047;-35
2022/01/07 10:11:11;;;;;;;0.20;0.20;;;;;;;19.10;43.19;100796.84;5110426;28;20442;-37
2022/01/07 10:13:37;;;;;;;0.20;0.20;;;;;;;19.12;43.65;100785.50;5080306;28;20078;-38
2022/01/07 10:16:13;;;;;;;0.20;0.20;;;;;;;19.12;44.34;100789.09;5111694;28;20043;-35
2022/01/07 10:18:50;;;;;;;0.20;0.20;;;;;;;19.13;44.28;100787.13;5091331;28;20048;-36
2022/01/07 10:21:16;;;;;;;0.20;0.20;;;;;;;19.14;44.44;100778.59;5092002;28;20394;-35
2022/01/07 10:23:43;;;;;;;0.20;0.20;;;;;;;19.15;44.17;100776.66;5109585;28;20074;-34
2022/01/07 10:26:13;;;;;;;0.20;0.20;;;;;;;19.14;44.29;100767.56;5108585;28;20066;-39
2022/01/07 10:28:38;;;;;;;0.20;0.20;;;;;;;19.14;44.43;100775.00;5105905;28;20040;-35
2022/01/07 10:31:07;;;;;;;0.20;0.20;;;;;;;19.14;44.37;100770.31;5101357;28;20092;-35
2022/01/07 10:33:41;;;;;;;0.20;0.20;;;;;;;19.14;44.01;100770.31;5107543;28;20063;-38
2022/01/07 10:38:49;;;;;;;0.20;0.20;;;;;;;19.15;44.07;100776.66;5152434;27;20205;-34
2022/01/07 10:41:16;;;;;;;0.20;0.20;;;;;;;19.14;43.74;100766.72;5132903;27;20268;-35
2022/01/07 10:43:42;;;;;;;0.20;0.20;;;;;;;19.14;43.88;100770.31;5145969;27;20039;-35
2022/01/07 10:46:12;;;;;;;0.20;0.20;;;;;;;19.14;43.73;100764.78;5134422;27;20046;-35
2022/01/07 10:48:42;;;;;;;0.20;0.20;;;;;;;19.14;43.71;100758.44;5149415;27;20050;-34
2022/01/07 10:51:10;;;;;;;0.20;0.20;;;;;;;19.15;43.49;100760.09;5132786;27;20043;-36
2022/01/07 10:53:37;;;;;;;0.20;0.20;;;;;;;19.14;43.39;100750.16;5127322;27;20043;-35
2022/01/07 10:56:06;;;;;;;0.20;0.20;;;;;;;19.14;43.74;100750.16;5134679;27;20426;-34
2022/01/07 10:58:49;;;;;;;0.20;0.20;;;;;;;19.13;43.41;100754.88;5156407;27;20047;-34
2022/01/07 11:04:01;;;;;;;0.20;0.20;;;;;;;19.13;43.33;100740.22;5176670;27;20128;-34
2022/01/07 11:06:28;;;;;;;0.20;0.20;;;;;;;19.13;43.40;100735.56;5153470;27;20051;-34
2022/01/07 11:08:55;;;;;;;0.20;0.20;;;;;;;19.13;43.24;100735.56;5114762;27;20053;-35
2022/01/07 11:11:22;;;;;;;0.20;0.20;;;;;;;19.13;43.30;100734.69;5152571;27;20092;-34
2022/01/07 11:13:49;;;;;;;0.20;0.20;;;;;;;19.13;43.30;100730.03;5129949;27;20045;-34
2022/01/07 11:16:15;;;;;;;0.20;0.20;;;;;;;19.12;43.12;100727.53;5117598;27;20460;-34
2022/01/07 11:18:43;;;;;;;0.20;0.20;;;;;;;19.12;43.08;100727.53;5149407;27;20043;-34
2022/01/07 11:21:10;;;;;;;0.20;0.20;;;;;;;19.12;43.14;100728.34;5153512;27;20045;-35
2022/01/07 11:23:37;;;;;;;0.20;0.20;;;;;;;19.13;43.23;100729.19;5147704;27;20078;-34
2022/01/07 11:26:06;;;;;;;0.20;0.20;;;;;;;19.12;43.09;100728.34;5134751;27;20042;-34
2022/01/07 11:28:32;;;;;;;0.20;0.20;;;;;;;19.12;43.38;100713.72;5148735;27;20295;-34
2022/01/07 11:31:04;;;;;;;0.20;0.20;;;;;;;19.12;43.07;100717.31;5150908;27;20538;-36
2022/01/07 11:33:30;;;;;;;0.20;0.20;;;;;;;19.13;43.04;100720.91;5151888;27;20070;-37